Time;durP1;ratioP1;P1;durP2;ratioP2;P2;SDS_P1;SDS_P2;PMS_P1;PMS_P2;Temp;Humidity;BMP_temperature;BMP_pressure;BME280_temperature;BME280_humidity;BME280_pressure;Samples;Min_cycle;Max_cycle;Signal;HPM_P1;HPM_P2
2022/06/13 00:00:20;;;;;;;21.15;6.50;;;;;;;17.36;59.29;101364.19;4985660;28;120104;-79
2022/06/13 00:02:47;;;;;;;25.08;7.18;;;;;;;17.34;59.34;101357.59;4987618;28;121639;-79
2022/06/13 00:05:14;;;;;;;29.98;8.05;;;;;;;17.31;59.76;101359.34;4983995;28;119313;-79
2022/06/13 00:07:40;;;;;;;26.23;7.47;;;;;;;17.24;59.76;101348.63;4990071;28;121543;-80
2022/06/13 00:10:07;;;;;;;20.73;6.85;;;;;;;17.31;59.36;101364.13;4988461;28;120831;-80
2022/06/13 00:12:37;;;;;;;28.73;6.90;;;;;;;17.20;59.24;101345.28;4985609;28;119523;-79
2022/06/13 00:15:07;;;;;;;21.92;6.53;;;;;;;17.26;59.29;101353.69;5016992;28;119662;-80
2022/06/13 00:17:33;;;;;;;21.95;6.60;;;;;;;17.17;59.41;101340.72;5001456;28;119605;-79
2022/06/13 00:19:59;;;;;;;26.30;6.60;;;;;;;17.19;59.59;101344.53;4990818;28;119272;-79
2022/06/13 00:22:24;;;;;;;23.02;6.15;;;;;;;17.24;59.21;101345.09;5015260;28;120009;-80
2022/06/13 00:24:50;;;;;;;22.02;6.00;;;;;;;17.25;59.45;101352.16;4993480;28;119827;-79
2022/06/13 00:27:16;;;;;;;20.15;6.15;;;;;;;17.26;59.95;101343.34;5005541;28;119321;-79
2022/06/13 00:29:47;;;;;;;21.85;6.15;;;;;;;17.25;59.46;101346.59;4976522;28;122026;-79
2022/06/13 00:32:14;;;;;;;22.38;5.47;;;;;;;17.24;59.57;101334.00;5008776;28;119546;-79
2022/06/13 00:34:40;;;;;;;25.13;6.28;;;;;;;17.23;59.14;101344.31;4985708;27;119533;-79
2022/06/13 00:37:05;;;;;;;20.88;5.40;;;;;;;17.22;59.03;101342.03;4990124;28;119650;-79
2022/06/13 00:39:31;;;;;;;25.63;5.88;;;;;;;17.21;59.05;101344.03;4981411;28;119742;-79
2022/06/13 00:41:57;;;;;;;19.88;5.35;;;;;;;17.21;59.18;101334.97;4999866;28;120130;-79
2022/06/13 00:44:27;;;;;;;21.98;5.78;;;;;;;17.19;58.84;101338.22;4989506;28;119494;-80
2022/06/13 00:46:53;;;;;;;21.15;5.78;;;;;;;17.16;59.24;101342.72;4991641;28;119820;-79
2022/06/13 00:49:31;;;;;;;23.95;5.25;;;;;;;17.12;59.45;101328.28;4999278;28;120230;-80
2022/06/13 00:52:14;;;;;;;22.10;5.93;;;;;;;17.15;59.78;101332.88;5017313;28;119319;-79
2022/06/13 00:54:43;;;;;;;22.53;5.47;;;;;;;17.16;59.20;101334.41;5008268;27;120107;-80
2022/06/13 00:57:15;;;;;;;25.58;5.18;;;;;;;17.18;59.11;101331.16;5006981;28;121074;-79
2022/06/13 00:59:42;;;;;;;15.98;4.97;;;;;;;17.10;59.38;101316.91;4995760;28;119525;-79
2022/06/13 01:02:08;;;;;;;21.88;5.53;;;;;;;17.20;59.94;101325.88;4988447;28;120551;-79
2022/06/13 01:04:35;;;;;;;22.02;4.97;;;;;;;17.12;59.42;101314.44;4979471;28;119618;-79
2022/06/13 01:07:02;;;;;;;18.90;5.35;;;;;;;17.23;60.08;101326.91;5002426;28;119697;-79
2022/06/13 01:12:14;;;;;;;21.92;6.05;;;;;;;17.23;60.05;101321.38;4985528;28;120571;-80
2022/06/13 01:15:05;;;;;;;24.38;5.70;;;;;;;17.23;59.55;101326.91;5021180;28;120965;-80
2022/06/13 01:17:40;;;;;;;23.63;6.20;;;;;;;17.23;59.31;101318.59;4981777;28;120380;-79
2022/06/13 01:20:06;;;;;;;21.67;6.13;;;;;;;17.22;60.12;101317.06;4968212;28;119868;-79
2022/06/13 01:22:47;;;;;;;25.15;5.65;;;;;;;17.23;59.80;101315.84;4974646;28;122065;-79
2022/06/13 01:25:34;;;;;;;21.63;5.70;;;;;;;17.26;59.74;101310.09;5000845;28;119394;-80
2022/06/13 01:28:39;;;;;;;16.67;5.30;;;;;;;17.25;60.26;101300.25;4982807;28;119294;-79
2022/06/13 01:31:17;;;;;;;;;;;;;;;17.23;59.68;101311.06;5007692;28;120517;-80
2022/06/13 01:34:13;;;;;;;20.70;5.68;;;;;;;17.25;60.24;101294.69;5022402;28;119671;-79
2022/06/13 01:36:54;;;;;;;22.63;5.40;;;;;;;17.26;60.26;101293.44;5012342;28;120007;-79
2022/06/13 01:39:44;;;;;;;18.80;5.30;;;;;;;17.27;59.59;101288.66;4978158;28;120795;-79
2022/06/13 01:42:31;;;;;;;20.83;5.13;;;;;;;17.27;59.33;101285.91;4989870;28;119467;-79
2022/06/13 01:45:09;;;;;;;16.80;5.63;;;;;;;17.26;59.90;101278.81;5004041;28;119404;-79
2022/06/13 01:47:53;;;;;;;21.63;5.47;;;;;;;17.25;60.24;101280.06;4987677;28;119274;-80
2022/06/13 01:50:22;;;;;;;19.70;5.75;;;;;;;17.24;60.41;101284.09;4982571;28;120095;-79
2022/06/13 01:52:51;;;;;;;18.30;4.82;;;;;;;17.23;60.06;101288.09;4993257;28;119982;-79
2022/06/13 01:55:46;;;;;;;18.23;5.07;;;;;;;17.16;59.94;101270.63;4998310;28;119941;-79
2022/06/13 01:58:49;;;;;;;17.10;5.20;;;;;;;17.19;60.05;101278.00;5002314;28;119946;-79
2022/06/13 02:01:53;;;;;;;17.50;5.30;;;;;;;17.16;60.06;101278.94;4990920;28;120280;-79
2022/06/13 02:04:37;;;;;;;20.67;5.20;;;;;;;17.14;59.80;101281.44;4976254;28;119663;-80
2022/06/13 02:07:13;;;;;;;19.75;5.03;;;;;;;17.13;60.16;101281.94;4975724;28;119177;-79
2022/06/13 02:10:02;;;;;;;19.77;4.80;;;;;;;17.11;60.04;101282.41;4980051;28;119971;-80
2022/06/13 02:12:34;;;;;;;21.67;5.20;;;;;;;17.05;59.80;101276.03;4994811;28;120363;-79
2022/06/13 02:15:14;;;;;;;18.30;5.35;;;;;;;17.04;59.68;101277.28;4978073;28;121656;-80
2022/06/13 02:17:50;;;;;;;24.02;5.97;;;;;;;17.00;59.43;101273.16;4977533;28;119656;-79
2022/06/13 02:20:34;;;;;;;21.58;5.28;;;;;;;16.93;60.21;101271.53;4976464;28;121286;-79
2022/06/13 02:23:06;;;;;;;17.33;5.72;;;;;;;16.91;60.34;101270.50;4981975;28;120624;-79
2022/06/13 02:25:49;;;;;;;16.45;5.28;;;;;;;16.88;60.63;101272.22;5004184;28;119911;-79
2022/06/13 02:28:24;;;;;;;15.02;4.72;;;;;;;16.87;60.58;101267.94;5002447;28;119670;-79
2022/06/13 02:31:00;;;;;;;16.92;5.30;;;;;;;16.80;60.81;101258.00;4977391;28;120841;-79
2022/06/13 02:33:31;;;;;;;14.93;5.00;;;;;;;16.79;60.74;101250.16;4984108;28;119672;-79
2022/06/13 02:36:13;;;;;;;17.23;4.97;;;;;;;16.84;61.00;101257.81;4960371;28;121924;-79
2022/06/13 02:39:00;;;;;;;19.73;5.57;;;;;;;16.77;60.91;101258.94;4974485;28;119374;-79
2022/06/13 02:41:31;;;;;;;16.63;5.55;;;;;;;16.72;60.23;101248.53;4973749;28;121228;-80
2022/06/13 02:44:03;;;;;;;17.67;5.55;;;;;;;16.65;60.35;101242.59;4973305;28;119906;-80
2022/06/13 02:46:44;;;;;;;16.75;5.30;;;;;;;16.65;60.42;101254.44;4980701;28;119292;-81
2022/06/13 02:49:19;;;;;;;19.92;5.70;;;;;;;16.63;60.44;101253.41;4994055;28;120601;-79
2022/06/13 02:51:50;;;;;;;21.80;5.63;;;;;;;16.56;60.94;101252.56;5004116;28;119356;-79
2022/06/13 02:54:23;;;;;;;21.25;5.68;;;;;;;16.53;60.17;101252.72;4994887;28;119890;-80
2022/06/13 02:57:24;;;;;;;17.50;6.15;;;;;;;16.51;60.61;101249.66;4962374;28;120718;-79
2022/06/13 02:59:51;;;;;;;18.40;6.03;;;;;;;16.48;61.18;101243.06;4989614;28;119790;-79
2022/06/13 03:02:27;;;;;;;22.77;6.10;;;;;;;16.50;61.83;101248.91;4992380;28;119725;-79
2022/06/13 03:05:00;;;;;;;17.70;6.00;;;;;;;16.48;61.90;101245.84;4986570;28;120194;-79
2022/06/13 03:07:34;;;;;;;17.93;6.23;;;;;;;16.55;62.50;101241.91;4980369;28;120402;-79
2022/06/13 03:10:28;;;;;;;16.17;5.93;;;;;;;16.50;62.06;101229.50;4996385;28;120122;-79
2022/06/13 03:13:01;;;;;;;21.30;6.90;;;;;;;16.60;62.58;101244.03;4992053;28;119797;-80
2022/06/13 03:15:37;;;;;;;22.90;6.63;;;;;;;16.62;62.87;101233.25;4977875;28;119666;-80
2022/06/13 03:18:15;;;;;;;22.92;6.30;;;;;;;16.63;62.54;101240.31;4981864;28;119301;-80
2022/06/13 03:20:59;;;;;;;16.52;6.20;;;;;;;16.64;62.97;101239.06;4975958;28;119487;-79
2022/06/13 03:23:49;;;;;;;23.02;7.15;;;;;;;16.66;63.18;101235.81;4996302;28;120320;-79
2022/06/13 03:26:23;;;;;;;17.83;5.85;;;;;;;16.71;62.89;101224.84;4997765;28;119355;-79
2022/06/13 03:28:59;;;;;;;14.80;5.65;;;;;;;16.74;63.25;101226.66;4995686;28;119846;-79
2022/06/13 03:31:43;;;;;;;18.00;5.75;;;;;;;16.74;62.53;101237.75;4978663;28;119419;-80
2022/06/13 03:34:13;;;;;;;17.52;5.60;;;;;;;16.73;62.59;101235.44;4974538;28;119588;-79
2022/06/13 03:36:44;;;;;;;19.88;6.20;;;;;;;16.72;62.42;101240.22;4976873;28;119379;-79
2022/06/13 03:39:19;;;;;;;13.65;5.57;;;;;;;16.75;62.47;101239.25;4976809;28;119575;-79
2022/06/13 03:42:02;;;;;;;14.00;5.32;;;;;;;16.75;62.03;101235.72;4980750;28;120203;-79
2022/06/13 03:44:40;;;;;;;14.80;5.50;;;;;;;16.76;62.59;101242.78;4977536;28;119356;-79
2022/06/13 03:47:14;;;;;;;17.27;5.10;;;;;;;16.77;62.60;101242.31;4976647;28;119411;-79
2022/06/13 03:49:52;;;;;;;14.82;5.60;;;;;;;16.70;62.98;101233.66;4977302;28;119699;-80
2022/06/13 03:52:18;;;;;;;14.85;5.30;;;;;;;16.81;62.40;101244.91;4976677;28;119804;-79
2022/06/13 03:54:54;;;;;;;12.52;5.03;;;;;;;16.79;62.50;101245.38;4973179;28;120239;-80
2022/06/13 03:57:26;;;;;;;15.48;5.72;;;;;;;16.76;62.33;101240.03;5001664;28;119631;-79
2022/06/13 04:00:08;;;;;;;15.73;5.15;;;;;;;16.79;62.18;101239.81;5006975;28;119439;-79
2022/06/13 04:02:36;;;;;;;10.15;4.93;;;;;;;16.79;62.44;101250.16;4984163;28;119528;-79
2022/06/13 04:05:06;;;;;;;14.25;5.28;;;;;;;16.67;62.74;101231.84;4998375;28;119712;-79
2022/06/13 04:07:39;;;;;;;13.70;5.63;;;;;;;16.74;62.12;101250.81;4994277;28;119103;-81
2022/06/13 04:10:09;;;;;;;15.07;5.70;;;;;;;16.71;62.27;101251.78;4990572;28;119752;-79
2022/06/13 04:13:00;;;;;;;17.70;5.28;;;;;;;16.72;62.47;101256.09;4995813;28;119800;-79
2022/06/13 04:15:55;;;;;;;14.43;5.45;;;;;;;16.68;62.51;101259.06;4996939;28;118816;-79
2022/06/13 04:18:36;;;;;;;13.43;5.75;;;;;;;16.62;62.27;101252.63;4995297;28;119448;-79
2022/06/13 04:21:22;;;;;;;18.77;5.90;;;;;;;16.66;62.48;101252.44;4983585;28;119510;-80
2022/06/13 04:24:02;;;;;;;16.25;5.38;;;;;;;16.67;62.14;101251.22;4987622;28;119980;-79
2022/06/13 04:26:47;;;;;;;17.52;6.10;;;;;;;16.70;63.04;101253.78;4996817;28;119455;-79
2022/06/13 04:29:40;;;;;;;17.13;6.03;;;;;;;16.73;62.87;101252.06;4994349;28;119751;-79
2022/06/13 04:32:12;;;;;;;18.33;5.70;;;;;;;16.75;63.18;101247.56;4976137;28;119514;-80
2022/06/13 04:34:48;;;;;;;17.90;5.75;;;;;;;16.80;63.07;101243.38;4976471;28;119502;-79
2022/06/13 04:37:16;;;;;;;14.50;5.60;;;;;;;16.80;63.94;101246.16;4976531;28;119393;-79
2022/06/13 04:39:43;;;;;;;15.57;6.25;;;;;;;16.93;63.36;101243.84;4992787;28;120087;-80
2022/06/13 04:42:11;;;;;;;16.60;5.82;;;;;;;16.97;63.96;101244.38;4996046;28;119397;-80
2022/06/13 04:44:40;;;;;;;17.27;5.70;;;;;;;17.04;63.73;101249.56;4977970;28;122431;-81
2022/06/13 04:47:07;;;;;;;19.20;6.22;;;;;;;17.10;63.68;101252.41;4976309;28;119364;-79
2022/06/13 04:49:55;;;;;;;20.98;6.10;;;;;;;17.11;63.96;101249.16;4942535;28;120100;-79
2022/06/13 04:52:36;;;;;;;19.00;6.45;;;;;;;17.18;63.55;101247.97;4989464;28;120039;-79
2022/06/13 04:55:26;;;;;;;17.40;6.05;;;;;;;17.28;64.04;101249.41;5001631;28;119975;-80
2022/06/13 04:57:52;;;;;;;18.95;6.18;;;;;;;17.30;63.79;101244.13;4974792;28;121285;-79
2022/06/13 05:00:18;;;;;;;17.90;6.30;;;;;;;17.36;63.94;101236.66;5004406;28;119696;-79
2022/06/13 05:02:51;;;;;;;24.88;6.78;;;;;;;17.47;63.47;101252.66;4993702;28;119450;-80
2022/06/13 05:05:23;;;;;;;24.42;6.20;;;;;;;17.52;63.89;101251.22;4973705;28;122060;-79
2022/06/13 05:07:49;;;;;;;19.55;6.00;;;;;;;17.56;63.42;101255.31;4975333;28;119208;-79
2022/06/13 05:10:19;;;;;;;19.60;5.90;;;;;;;17.60;63.71;101260.66;4982337;28;119859;-79
2022/06/13 05:12:46;;;;;;;24.10;6.85;;;;;;;17.63;62.98;101265.97;4995003;28;119980;-79
2022/06/13 05:15:22;;;;;;;23.83;6.55;;;;;;;17.68;62.80;101262.53;4988297;28;119888;-80
2022/06/13 05:18:10;;;;;;;22.58;6.05;;;;;;;17.71;62.62;101256.00;4973961;28;120587;-79
2022/06/13 05:21:00;;;;;;;30.27;6.38;;;;;;;17.72;62.47;101248.44;4974773;28;119655;-79
2022/06/13 05:23:54;;;;;;;19.45;5.93;;;;;;;17.80;62.81;101263.44;4984420;28;119508;-80
2022/06/13 05:26:27;;;;;;;22.65;5.35;;;;;;;17.68;62.27;101245.91;4993200;28;120860;-80
2022/06/13 05:28:53;;;;;;;28.77;6.05;;;;;;;17.76;61.94;101258.13;4995776;28;119393;-79
2022/06/13 05:31:19;;;;;;;24.65;6.00;;;;;;;17.84;61.70;101271.56;4994536;28;118969;-80
2022/06/13 05:33:46;;;;;;;25.42;6.38;;;;;;;17.86;61.62;101269.06;4976401;28;119565;-79
2022/06/13 05:36:17;;;;;;;21.83;5.53;;;;;;;17.90;61.88;101273.16;4983339;28;119377;-80
2022/06/13 05:38:46;;;;;;;21.67;6.38;;;;;;;17.91;62.77;101263.56;4978213;28;120579;-79
2022/06/13 05:41:12;;;;;;;19.45;5.85;;;;;;;17.93;62.48;101265.84;4977174;28;119628;-79
2022/06/13 05:43:38;;;;;;;17.65;5.30;;;;;;;18.01;62.51;101262.19;4978038;28;120121;-80
2022/06/13 05:46:05;;;;;;;23.20;5.97;;;;;;;18.07;62.10;101262.25;4977705;28;121461;-80
2022/06/13 05:48:31;;;;;;;21.05;5.18;;;;;;;18.19;61.79;101271.44;4990809;28;119738;-79
2022/06/13 05:50:57;;;;;;;16.30;5.25;;;;;;;18.14;62.42;101253.47;5008855;28;119451;-79
2022/06/13 05:53:24;;;;;;;17.83;4.97;;;;;;;18.23;61.91;101256.09;5014340;27;119805;-79
2022/06/13 05:55:54;;;;;;;20.45;5.15;;;;;;;18.29;61.31;101262.47;4995855;28;119444;-79
2022/06/13 05:58:21;;;;;;;18.58;4.70;;;;;;;18.35;61.08;101274.41;5000829;28;119196;-79
2022/06/13 06:00:49;;;;;;;17.88;4.00;;;;;;;18.38;60.11;101278.19;5016453;28;119404;-79
2022/06/13 06:03:16;;;;;;;17.00;4.38;;;;;;;18.41;60.44;101280.75;5008381;28;119495;-79
2022/06/13 06:05:42;;;;;;;18.55;4.30;;;;;;;18.39;59.93;101286.03;4977107;28;119326;-79
2022/06/13 06:08:19;;;;;;;18.08;4.15;;;;;;;18.46;59.62;101306.31;4977051;28;119370;-79
2022/06/13 06:10:47;;;;;;;8.95;2.75;;;;;;;18.40;58.08;101309.78;4986946;28;119404;-79
2022/06/13 06:13:14;;;;;;;6.70;1.80;;;;;;;18.31;57.14;101309.97;4985425;28;119944;-80
2022/06/13 06:15:41;;;;;;;7.93;2.17;;;;;;;18.22;57.37;101303.81;4985733;28;119523;-80
2022/06/13 06:18:07;;;;;;;7.22;2.08;;;;;;;18.09;58.23;101295.81;4981571;28;119555;-79
2022/06/13 06:20:33;;;;;;;8.90;2.35;;;;;;;17.96;58.86;101298.94;4963961;28;121382;-79
2022/06/13 06:22:59;;;;;;;5.93;2.10;;;;;;;17.89;59.74;101295.84;4988685;28;120015;-79
2022/06/13 06:25:24;;;;;;;9.48;2.60;;;;;;;17.82;60.17;101282.38;4981099;28;120370;-79
2022/06/13 06:27:50;;;;;;;9.00;2.45;;;;;;;17.73;59.92;101286.81;4978200;28;119341;-79
2022/06/13 06:30:17;;;;;;;8.18;2.72;;;;;;;17.73;60.64;101286.03;4976161;28;119591;-79
2022/06/13 06:32:44;;;;;;;8.40;2.42;;;;;;;17.62;61.07;101267.22;4976045;28;119481;-79
2022/06/13 06:35:10;;;;;;;8.00;2.33;;;;;;;17.72;61.68;101285.28;4975680;28;119396;-80
2022/06/13 06:37:40;;;;;;;9.75;2.50;;;;;;;17.79;63.24;101295.22;4976114;28;119580;-79
2022/06/13 06:40:07;;;;;;;10.20;2.90;;;;;;;17.84;63.24;101297.31;4975983;28;119509;-80
2022/06/13 06:42:33;;;;;;;7.70;2.67;;;;;;;17.84;63.11;101291.00;4981573;28;119340;-79
2022/06/13 06:45:02;;;;;;;12.13;3.10;;;;;;;17.91;63.34;101301.66;4997803;28;119875;-79
2022/06/13 06:47:30;;;;;;;8.45;2.78;;;;;;;17.90;63.19;101311.25;4990678;28;119421;-79
2022/06/13 06:49:56;;;;;;;7.22;2.72;;;;;;;17.90;63.28;101300.91;4976146;28;119688;-79
2022/06/13 06:52:24;;;;;;;9.38;2.53;;;;;;;17.87;62.91;101296.31;4981875;28;119790;-79
2022/06/13 07:00:25;;;;;;;6.90;2.13;;;;;;;18.00;62.59;101282.09;5011813;28;119323;-79
2022/06/13 07:02:50;;;;;;;7.82;2.38;;;;;;;18.07;62.28;101290.75;5017221;28;119522;-79
2022/06/13 07:05:16;;;;;;;8.98;2.35;;;;;;;18.05;62.49;101292.50;5013278;27;119460;-79
2022/06/13 07:07:43;;;;;;;9.02;2.58;;;;;;;18.02;62.18;101293.47;4997479;28;119243;-79
2022/06/13 07:10:27;;;;;;;8.88;2.63;;;;;;;17.94;62.43;101301.44;4997804;28;119376;-80
2022/06/13 07:12:56;;;;;;;14.10;3.33;;;;;;;17.88;62.55;101306.19;4992430;28;119745;-79
2022/06/13 07:15:25;;;;;;;16.38;3.30;;;;;;;17.84;63.03;101296.53;4977293;28;119383;-79
2022/06/13 07:17:51;;;;;;;11.10;2.95;;;;;;;17.78;63.27;101291.69;4975182;28;120247;-79
2022/06/13 07:20:17;;;;;;;10.93;2.83;;;;;;;17.68;63.35;101290.28;4976915;28;119532;-80
2022/06/13 07:22:49;;;;;;;11.38;2.78;;;;;;;17.64;63.46;101297.25;4980311;28;119511;-79
2022/06/13 07:25:22;;;;;;;12.40;3.90;;;;;;;17.56;63.47;101291.38;4989630;28;119972;-79
2022/06/13 07:27:54;;;;;;;8.93;3.20;;;;;;;17.52;63.81;101281.72;4966403;28;119953;-79
2022/06/13 07:30:23;;;;;;;10.30;2.90;;;;;;;17.47;64.28;101286.69;4986658;28;119803;-79
2022/06/13 07:32:50;;;;;;;13.60;3.58;;;;;;;17.45;64.66;101288.44;4982455;28;119559;-79
2022/06/13 07:35:19;;;;;;;12.00;3.60;;;;;;;17.45;65.23;101291.19;4983896;28;120690;-79
2022/06/13 07:40:31;;;;;;;17.85;4.22;;;;;;;17.51;65.47;101283.75;4989345;28;119372;-80
2022/06/13 07:43:03;;;;;;;17.00;4.43;;;;;;;17.60;66.08;101291.91;4991565;28;119402;-80
2022/06/13 07:45:33;;;;;;;15.90;4.10;;;;;;;17.66;66.33;101287.19;4982320;28;119269;-79
2022/06/13 07:47:59;;;;;;;16.67;4.30;;;;;;;17.69;66.64;101280.72;4985704;28;122621;-80
2022/06/13 07:50:26;;;;;;;13.43;4.35;;;;;;;17.77;66.90;101283.84;4986285;28;119249;-80
2022/06/13 07:52:53;;;;;;;15.98;4.25;;;;;;;17.92;67.30;101294.84;4982787;28;119613;-79
2022/06/13 07:55:27;;;;;;;16.08;4.40;;;;;;;17.98;67.69;101281.81;4987159;28;119602;-79
2022/06/13 07:57:53;;;;;;;18.98;4.50;;;;;;;18.16;68.02;101292.63;4989818;28;119799;-79
2022/06/13 08:00:26;;;;;;;17.58;4.63;;;;;;;18.37;67.16;101307.22;4988541;28;120255;-80
2022/06/13 08:02:53;;;;;;;14.70;4.35;;;;;;;18.36;66.70;101292.59;4985246;28;119474;-80
2022/06/13 08:05:20;;;;;;;16.75;4.20;;;;;;;18.42;66.53;101307.28;4982315;28;119700;-81
2022/06/13 08:07:49;;;;;;;16.65;3.72;;;;;;;18.43;66.38;101310.81;4985940;28;119942;-79
2022/06/13 08:10:15;;;;;;;20.13;5.32;;;;;;;18.39;66.39;101318.59;4990235;28;119425;-79
2022/06/13 08:12:45;;;;;;;21.35;6.10;;;;;;;18.40;66.45;101320.91;4982708;28;119537;-79
2022/06/13 08:15:15;;;;;;;21.15;5.53;;;;;;;18.37;66.39;101316.31;4984136;28;119817;-80
2022/06/13 08:17:44;;;;;;;14.60;4.55;;;;;;;18.27;66.60;101298.31;4993512;28;119411;-80
2022/06/13 08:20:11;;;;;;;9.98;3.72;;;;;;;18.28;65.95;101321.28;4973483;28;120701;-79
2022/06/13 08:22:45;;;;;;;16.00;4.10;;;;;;;18.25;65.84;101314.69;4978939;28;119552;-80
2022/06/13 08:25:31;;;;;;;17.15;4.28;;;;;;;18.20;66.12;101317.38;4996208;28;119744;-79
2022/06/13 08:27:58;;;;;;;12.98;4.70;;;;;;;18.19;66.88;101313.84;4979009;28;120759;-80
2022/06/13 08:30:26;;;;;;;16.88;4.75;;;;;;;18.29;67.68;101314.47;4976401;28;119459;-79
2022/06/13 08:32:52;;;;;;;17.45;4.53;;;;;;;18.45;67.58;101327.75;4979653;28;119484;-79
2022/06/13 08:35:18;;;;;;;14.63;5.00;;;;;;;18.62;68.33;101316.81;4973671;28;119725;-80
2022/06/13 08:37:46;;;;;;;13.90;4.43;;;;;;;18.78;68.33;101310.69;4984474;28;120332;-79
2022/06/13 08:40:12;;;;;;;15.98;4.60;;;;;;;18.88;67.85;101314.03;4999481;28;121692;-79
2022/06/13 08:42:46;;;;;;;15.15;3.85;;;;;;;19.04;66.74;101321.00;4978189;28;119460;-79
2022/06/13 08:45:22;;;;;;;17.70;4.22;;;;;;;19.16;67.63;101317.78;4981633;28;119560;-79
2022/06/13 08:47:51;;;;;;;11.98;3.05;;;;;;;19.30;66.05;101330.81;4985188;28;120358;-80
2022/06/13 08:50:48;;;;;;;10.02;2.78;;;;;;;19.34;64.88;101322.22;4984347;28;119767;-79
2022/06/13 08:53:23;;;;;;;10.95;2.90;;;;;;;19.28;64.72;101319.41;4983886;28;119506;-80
2022/06/13 08:55:54;;;;;;;9.73;3.47;;;;;;;19.28;65.24;101307.53;4989429;28;119697;-79
2022/06/13 08:58:34;;;;;;;10.95;2.90;;;;;;;19.28;64.50;101322.19;4967568;28;119938;-80
2022/06/13 09:01:32;;;;;;;6.45;1.80;;;;;;;19.18;61.52;101337.56;4981323;28;119690;-80
2022/06/13 09:04:11;;;;;;;8.75;2.30;;;;;;;18.97;60.76;101325.00;4982611;28;119625;-79
2022/06/13 09:07:02;;;;;;;7.32;1.80;;;;;;;18.86;60.30;101330.44;4987257;28;119569;-80
2022/06/13 09:09:58;;;;;;;9.38;2.20;;;;;;;18.85;62.43;101321.34;4986915;28;119984;-80
2022/06/13 09:12:35;;;;;;;8.23;2.40;;;;;;;18.92;62.92;101323.69;4985840;28;119838;-80
2022/06/13 09:15:12;;;;;;;10.23;2.25;;;;;;;18.94;62.50;101340.66;4983748;28;119712;-80
2022/06/13 09:17:43;;;;;;;7.95;1.65;;;;;;;18.92;61.95;101328.47;4985648;28;120182;-80
2022/06/13 09:20:31;;;;;;;7.47;2.10;;;;;;;18.91;60.48;101324.16;4991676;28;119337;-79
2022/06/13 09:23:12;;;;;;;6.50;2.17;;;;;;;18.96;62.00;101329.03;4983459;28;119424;-80
2022/06/13 09:26:15;;;;;;;9.25;2.63;;;;;;;19.05;63.17;101326.06;4998728;28;119420;-80
2022/06/13 09:28:53;;;;;;;7.07;2.25;;;;;;;19.25;63.43;101327.97;4998912;28;119948;-80
2022/06/13 09:31:40;;;;;;;11.52;2.33;;;;;;;19.39;61.45;101329.06;4979116;28;119504;-80
2022/06/13 09:34:39;;;;;;;7.68;1.80;;;;;;;19.54;60.74;101341.59;4990989;28;119166;-80
2022/06/13 09:37:10;;;;;;;7.70;2.08;;;;;;;19.53;58.38;101356.78;4986457;28;119780;-80
2022/06/13 09:39:37;;;;;;;7.47;2.15;;;;;;;19.36;59.41;101347.53;4978732;28;122232;-80
2022/06/13 09:42:21;;;;;;;7.57;2.22;;;;;;;19.32;59.05;101352.56;4992470;28;119883;-79
2022/06/13 09:44:50;;;;;;;9.10;2.45;;;;;;;19.29;60.90;101354.31;4993117;28;120246;-80
2022/06/13 09:47:34;;;;;;;10.95;2.55;;;;;;;19.35;62.28;101351.56;4984339;28;119899;-80
2022/06/13 09:50:24;;;;;;;8.38;1.92;;;;;;;19.38;59.85;101345.00;4985138;28;120180;-80
2022/06/13 09:53:03;;;;;;;9.25;2.25;;;;;;;19.33;57.73;101354.84;4985085;27;119391;-81
2022/06/13 09:55:32;;;;;;;12.02;2.90;;;;;;;19.33;59.80;101368.75;4981561;28;119861;-80
2022/06/13 09:58:06;;;;;;;6.45;1.70;;;;;;;19.31;56.39;101362.16;4980120;28;119713;-79
2022/06/13 10:00:56;;;;;;;8.63;1.90;;;;;;;19.25;58.14;101344.69;4988779;28;119929;-80
2022/06/13 10:03:39;;;;;;;7.55;1.85;;;;;;;19.23;59.68;101355.53;4988362;28;121484;-80
2022/06/13 10:06:39;;;;;;;12.10;2.10;;;;;;;19.20;58.70;101367.66;4992854;28;119609;-80
2022/06/13 10:09:07;;;;;;;7.88;2.08;;;;;;;19.17;59.00;101374.19;4987403;28;119574;-80
2022/06/13 10:11:49;;;;;;;6.85;2.40;;;;;;;19.12;60.19;101358.97;4986016;28;119528;-80
2022/06/13 10:14:21;;;;;;;8.90;2.30;;;;;;;19.13;59.95;101371.63;4984421;28;119803;-79
2022/06/13 10:17:10;;;;;;;10.57;2.08;;;;;;;19.19;60.42;101366.13;4987938;28;119462;-79
2022/06/13 10:20:11;;;;;;;10.93;2.20;;;;;;;19.31;59.34;101359.38;4982456;28;119771;-80
2022/06/13 10:23:17;;;;;;;7.40;2.00;;;;;;;19.37;60.22;101360.16;4986872;28;120226;-80
2022/06/13 10:25:59;;;;;;;5.82;1.92;;;;;;;19.45;59.25;101361.25;4985848;28;119814;-79
2022/06/13 10:29:05;;;;;;;5.90;1.60;;;;;;;19.55;58.87;101365.38;4985700;28;119745;-79
2022/06/13 10:31:59;;;;;;;8.05;1.70;;;;;;;19.68;58.86;101362.19;5000777;28;122239;-80
2022/06/13 10:34:28;;;;;;;7.80;1.67;;;;;;;19.75;58.76;101349.81;4981886;28;119760;-80
2022/06/13 10:37:12;;;;;;;8.30;1.38;;;;;;;19.92;57.23;101379.28;4991210;28;119384;-80
2022/06/13 10:39:38;;;;;;;3.55;1.30;;;;;;;19.93;56.32;101377.25;4978880;28;120029;-81
2022/06/13 10:42:09;;;;;;;8.00;1.60;;;;;;;19.98;56.25;101370.94;4988397;28;119806;-80
2022/06/13 10:44:37;;;;;;;6.03;1.30;;;;;;;20.00;56.68;101360.06;4995603;28;119668;-81
2022/06/13 10:47:23;;;;;;;6.95;1.73;;;;;;;20.18;56.84;101384.69;4983731;28;120058;-80
2022/06/13 10:49:57;;;;;;;7.22;1.75;;;;;;;20.20;56.55;101371.03;5008340;27;119960;-81
2022/06/13 10:52:27;;;;;;;8.32;1.77;;;;;;;20.15;56.04;101380.13;4982041;28;120177;-81
2022/06/13 10:54:59;;;;;;;5.40;1.60;;;;;;;20.07;56.43;101393.00;4998675;28;119831;-79
2022/06/13 10:57:31;;;;;;;9.15;1.90;;;;;;;20.01;56.27;101395.00;4974438;28;122313;-81
2022/06/13 11:00:16;;;;;;;7.07;1.92;;;;;;;19.94;56.67;101401.03;4998018;28;119920;-80
2022/06/13 11:02:42;;;;;;;5.97;1.33;;;;;;;19.86;54.34;101399.97;5014156;28;119360;-79
2022/06/13 11:05:14;;;;;;;7.75;1.73;;;;;;;19.89;55.46;101399.75;4975750;28;120584;-80
2022/06/13 11:07:58;;;;;;;5.00;1.25;;;;;;;19.90;56.28;101412.44;4975960;28;119475;-79
2022/06/13 11:10:33;;;;;;;7.97;1.80;;;;;;;19.85;54.06;101417.94;4981157;28;119495;-79
2022/06/13 11:13:00;;;;;;;4.85;1.42;;;;;;;19.67;52.24;101432.25;4974658;28;119440;-80
2022/06/13 11:24:19;;;;;;;9.50;1.92;;;;;;;19.08;54.79;101432.75;4990760;28;119477;-80
2022/06/13 11:29:35;;;;;;;6.75;1.80;;;;;;;18.90;55.78;101423.47;4977191;28;119766;-79
2022/06/13 11:32:04;;;;;;;4.90;1.58;;;;;;;18.89;56.67;101423.97;4975701;28;119676;-80
2022/06/13 11:34:38;;;;;;;8.40;1.65;;;;;;;18.87;57.53;101427.25;4975423;28;119790;-79
2022/06/13 11:37:12;;;;;;;5.32;1.50;;;;;;;18.87;57.50;101435.59;4976850;28;120503;-79
2022/06/13 11:39:41;;;;;;;6.85;1.38;;;;;;;18.88;57.75;101437.13;4977079;28;119709;-79
2022/06/13 11:42:33;;;;;;;9.05;1.70;;;;;;;18.94;57.75;101435.16;4988926;28;119469;-79
2022/06/13 11:45:18;;;;;;;3.50;1.10;;;;;;;18.98;56.68;101434.94;4956298;28;120479;-80
2022/06/13 11:47:50;;;;;;;4.30;1.30;;;;;;;19.06;56.54;101424.16;4974238;28;120670;-79
2022/06/13 11:50:19;;;;;;;4.43;1.30;;;;;;;19.13;55.85;101430.03;4976455;28;119416;-79
2022/06/13 11:53:46;;;;;;;4.55;1.30;;;;;;;19.12;53.97;101413.81;4976505;28;119459;-80
2022/06/13 11:55:56;;;;;;;8.77;1.35;;;;;;;19.25;55.09;101428.88;4976497;28;122005;-80
2022/06/13 11:58:27;;;;;;;5.68;1.27;;;;;;;19.23;54.64;101416.72;4995300;28;119778;-80
2022/06/13 12:01:03;;;;;;;3.80;1.10;;;;;;;19.31;54.57;101428.91;4983299;28;119421;-80
2022/06/13 12:03:29;;;;;;;5.82;1.20;;;;;;;19.31;52.62;101431.69;4977263;28;120907;-80
2022/06/13 12:06:14;;;;;;;7.05;1.27;;;;;;;19.26;52.86;101426.84;4958623;28;120496;-79
2022/06/13 12:08:49;;;;;;;6.32;1.40;;;;;;;19.37;52.94;101443.63;4958870;28;121316;-79